Time;durP1;ratioP1;P1;durP2;ratioP2;P2;SDS_P1;SDS_P2;PMS_P1;PMS_P2;Temp;Humidity;BMP_temperature;BMP_pressure;BME280_temperature;BME280_humidity;BME280_pressure;Samples;Min_cycle;Max_cycle;Signal;HPM_P1;HPM_P2
2022/04/30 00:00:37;;;;;;;10.00;6.05;;;;;;;6.15;92.70;67458.38;6039181;23;20014;-86
2022/04/30 00:03:03;;;;;;;12.27;7.55;;;;;;;6.04;93.40;67451.81;6064695;23;20014;-86
2022/04/30 00:05:30;;;;;;;11.65;7.03;;;;;;;6.01;93.59;67442.56;6065634;23;20122;-86
2022/04/30 00:07:56;;;;;;;10.52;7.18;;;;;;;5.97;93.95;67443.31;6064556;23;20374;-86
2022/04/30 00:10:23;;;;;;;12.18;7.75;;;;;;;5.91;94.18;67431.81;6064388;23;20026;-86
2022/04/30 00:12:48;;;;;;;11.20;7.65;;;;;;;5.91;94.28;67431.25;6063532;23;20512;-85
2022/04/30 00:15:14;;;;;;;11.10;7.30;;;;;;;5.85;94.51;67425.59;6064314;23;20039;-85
2022/04/30 00:17:39;;;;;;;14.05;7.38;;;;;;;5.86;94.48;67429.34;6039318;23;20019;-85
2022/04/30 00:20:06;;;;;;;10.30;6.43;;;;;;;5.78;94.95;67419.75;6039630;23;20471;-85
2022/04/30 00:22:32;;;;;;;11.55;6.30;;;;;;;5.78;94.88;67422.38;6037936;23;20401;-86
2022/04/30 00:24:57;;;;;;;9.55;6.20;;;;;;;;;;6037279;23;20022;-85
2022/04/30 00:27:22;;;;;;;10.48;6.68;;;;;;;5.69;95.50;67409.56;6038377;23;20018;-86
2022/04/30 00:29:48;;;;;;;9.60;6.35;;;;;;;5.63;95.59;67401.28;6067122;23;20023;-86
2022/04/30 00:32:14;;;;;;;11.73;6.47;;;;;;;5.59;95.88;67399.41;6066215;23;20076;-85
2022/04/30 00:34:40;;;;;;;10.77;6.72;;;;;;;;;;6069356;23;20018;-87
2022/04/30 00:37:05;;;;;;;10.05;6.65;;;;;;;5.64;95.32;67405.06;6088239;23;20003;-87
2022/04/30 00:39:31;;;;;;;14.50;6.40;;;;;;;5.62;95.46;67399.59;6065733;23;20019;-88
2022/04/30 00:41:57;;;;;;;10.65;6.55;;;;;;;5.55;95.99;67396.94;6038208;23;20054;-87
2022/04/30 00:44:23;;;;;;;10.15;6.68;;;;;;;;;;6062144;23;20027;-86
2022/04/30 00:46:48;;;;;;;10.38;7.28;;;;;;;5.50;96.38;67386.59;6036456;23;20406;-86
2022/04/30 00:49:13;;;;;;;10.20;6.55;;;;;;;5.53;95.83;67389.44;6036009;23;20029;-86
2022/04/30 00:51:39;;;;;;;9.90;6.88;;;;;;;5.40;96.00;67375.28;6035905;23;20102;-87
2022/04/30 00:54:07;;;;;;;12.38;7.63;;;;;;;5.32;97.22;67371.53;6035208;23;20026;-86
2022/04/30 00:56:34;;;;;;;11.73;6.65;;;;;;;5.32;97.14;67368.88;6060940;23;20018;-85
2022/04/30 00:59:05;;;;;;;10.52;6.72;;;;;;;5.29;97.35;67362.88;6033805;23;20011;-86
2022/04/30 01:01:35;;;;;;;14.50;6.85;;;;;;;5.29;97.72;67362.88;6034036;23;20029;-85
2022/04/30 01:04:00;;;;;;;11.77;7.50;;;;;;;5.29;97.50;67362.88;6058119;23;20066;-86
2022/04/30 01:06:51;;;;;;;13.25;7.35;;;;;;;5.25;97.98;67364.19;6034333;23;20015;-86
2022/04/30 01:09:28;;;;;;;14.23;7.40;;;;;;;5.24;97.46;67363.06;6033265;23;20019;-87
2022/04/30 01:12:00;;;;;;;11.55;6.78;;;;;;;5.22;97.55;67354.97;6058463;23;20352;-88
2022/04/30 01:14:29;;;;;;;10.68;7.00;;;;;;;5.20;97.93;67356.47;6058891;23;20019;-86
2022/04/30 01:16:57;;;;;;;12.73;7.03;;;;;;;5.18;97.41;67356.28;6033244;23;20029;-85
2022/04/30 01:19:24;;;;;;;10.98;7.50;;;;;;;5.13;98.21;67345.94;6058296;23;20015;-87
2022/04/30 01:21:52;;;;;;;11.18;6.82;;;;;;;5.15;98.00;67352.88;6060521;23;20022;-86
2022/04/30 01:24:22;;;;;;;12.53;7.40;;;;;;;5.11;98.14;67345.75;6036144;23;20055;-86
2022/04/30 01:26:48;;;;;;;;;;;;;;;5.01;99.45;67331.81;6062966;23;20291;-87
2022/04/30 01:29:13;;;;;;;12.45;7.65;;;;;;;4.91;99.46;67323.72;6033774;23;20355;-88
2022/04/30 01:37:26;;;;;;;10.15;7.13;;;;;;;4.96;99.12;67332.00;6036957;23;20030;-85
2022/04/30 01:40:03;;;;;;;12.13;7.70;;;;;;;4.94;98.75;67329.72;6034613;23;20353;-88
2022/04/30 01:42:31;;;;;;;11.70;8.05;;;;;;;4.85;99.62;67316.94;6034123;23;20461;-87
2022/04/30 01:44:58;;;;;;;9.90;7.55;;;;;;;4.83;99.39;67314.66;6033212;23;20023;-87
2022/04/30 01:47:24;;;;;;;15.77;8.60;;;;;;;4.78;99.77;67306.41;6059264;23;20117;-87
2022/04/30 01:49:51;;;;;;;11.07;7.95;;;;;;;4.73;100.00;67306.59;6033273;23;20401;-85
2022/04/30 01:52:16;;;;;;;15.20;8.63;;;;;;;4.73;100.00;67301.31;6034205;23;20015;-86
2022/04/30 01:54:43;;;;;;;10.70;7.75;;;;;;;4.66;100.00;67296.03;6035257;23;20519;-86
2022/04/30 01:57:08;;;;;;;14.25;8.82;;;;;;;4.65;100.00;67292.28;6032482;23;20058;-86
2022/04/30 01:59:34;;;;;;;14.18;8.63;;;;;;;;;;6035272;23;20027;-85
2022/04/30 02:02:01;;;;;;;16.02;8.90;;;;;;;4.62;100.00;67294.16;6060168;23;20022;-85
2022/04/30 02:04:27;;;;;;;14.48;8.85;;;;;;;4.61;100.00;67293.03;6062302;23;20026;-85
2022/04/30 02:06:55;;;;;;;15.85;9.10;;;;;;;4.60;100.00;67289.81;6037104;23;20019;-86
2022/04/30 02:09:22;;;;;;;14.20;9.05;;;;;;;4.53;100.00;67282.50;6061043;23;20015;-88
2022/04/30 02:11:48;;;;;;;13.52;8.57;;;;;;;4.61;100.00;67293.59;6035658;23;20047;-86
2022/04/30 02:14:14;;;;;;;13.63;8.63;;;;;;;4.59;100.00;67286.06;6035345;23;20034;-85
2022/04/30 02:16:42;;;;;;;12.40;8.75;;;;;;;4.62;100.00;67291.53;6035428;23;20333;-86
2022/04/30 02:19:08;;;;;;;13.15;8.15;;;;;;;4.61;100.00;67293.59;6061132;23;20019;-85
2022/04/30 02:21:35;;;;;;;14.63;8.95;;;;;;;4.56;100.00;67282.13;6037271;23;20030;-85
2022/04/30 02:24:02;;;;;;;14.27;9.07;;;;;;;4.51;100.00;67282.31;6036569;23;20094;-85
2022/04/30 02:26:28;;;;;;;18.27;9.55;;;;;;;4.46;100.00;67271.38;6037002;23;20023;-85
2022/04/30 02:28:57;;;;;;;15.68;9.88;;;;;;;4.45;100.00;67276.09;6038227;23;20476;-85
2022/04/30 02:31:27;;;;;;;16.02;9.98;;;;;;;4.45;100.00;67276.09;6036729;23;20414;-86
2022/04/30 02:33:56;;;;;;;19.00;9.82;;;;;;;4.42;100.00;67270.06;6037150;23;20025;-85
2022/04/30 02:36:26;;;;;;;15.80;9.95;;;;;;;4.39;100.00;67269.31;6061969;23;20078;-88
2022/04/30 02:38:55;;;;;;;17.60;10.32;;;;;;;4.36;100.00;67268.00;6063592;23;20015;-85
2022/04/30 02:41:21;;;;;;;18.50;11.15;;;;;;;4.38;100.00;67268.19;6064344;23;20022;-85
2022/04/30 02:43:52;;;;;;;16.58;11.07;;;;;;;4.31;100.00;67260.28;6037128;23;20078;-85
2022/04/30 02:46:19;;;;;;;17.13;10.65;;;;;;;4.34;100.00;67257.84;6062615;23;20018;-86
2022/04/30 02:48:45;;;;;;;19.33;10.88;;;;;;;4.29;100.00;67258.03;6037641;23;20449;-86
2022/04/30 02:51:11;;;;;;;17.20;11.32;;;;;;;4.26;100.00;67254.66;6035111;23;20030;-86
2022/04/30 02:53:38;;;;;;;18.27;10.73;;;;;;;4.23;100.00;67248.63;6060850;23;20466;-86
2022/04/30 02:56:04;;;;;;;18.95;11.13;;;;;;;4.24;100.00;67252.97;6061898;23;20043;-85
2022/04/30 03:01:14;;;;;;;16.85;11.27;;;;;;;4.20;100.00;67248.44;6060204;23;20070;-86
2022/04/30 03:03:40;;;;;;;22.65;12.60;;;;;;;4.11;100.00;67238.28;6061281;23;20011;-87
2022/04/30 03:06:06;;;;;;;16.17;11.20;;;;;;;3.99;100.00;67225.31;6058996;23;20022;-86
2022/04/30 03:08:32;;;;;;;20.02;11.82;;;;;;;4.02;100.00;67228.13;6060140;23;20043;-86
2022/04/30 03:10:58;;;;;;;18.13;11.77;;;;;;;3.98;100.00;67218.91;6058190;23;20026;-89
2022/04/30 03:13:25;;;;;;;17.80;10.88;;;;;;;3.99;100.00;67224.75;6059431;23;20018;-87
2022/04/30 03:15:52;;;;;;;20.75;13.35;;;;;;;3.94;100.00;67219.09;6034450;23;20022;-86
2022/04/30 03:23:41;;;;;;;21.05;13.63;;;;;;;3.88;100.00;67209.69;6063895;23;20023;-86
2022/04/30 03:26:08;;;;;;;19.08;13.23;;;;;;;3.83;100.00;67204.63;6060124;23;20339;-86
2022/04/30 03:28:35;;;;;;;22.48;13.65;;;;;;;3.85;100.00;67204.22;6060127;23;20033;-86
2022/04/30 03:31:01;;;;;;;20.00;13.50;;;;;;;3.80;100.00;67201.25;6032222;23;20018;-86
2022/04/30 03:33:27;;;;;;;22.98;14.73;;;;;;;3.81;100.00;67202.38;6031921;23;20018;-89
2022/04/30 03:35:53;;;;;;;24.30;15.07;;;;;;;3.77;100.00;67195.22;6039385;23;20098;-86
2022/04/30 03:38:18;;;;;;;22.63;14.15;;;;;;;3.74;100.00;67194.44;6067815;23;20022;-86
2022/04/30 03:40:44;;;;;;;19.63;14.10;;;;;;;3.75;100.00;67198.22;6045237;23;20019;-86
2022/04/30 03:43:09;;;;;;;20.65;14.20;;;;;;;3.71;100.00;67191.06;6041262;23;20018;-87
2022/04/30 03:45:36;;;;;;;24.50;13.82;;;;;;;3.77;100.00;67200.47;6042654;23;20011;-86
2022/04/30 03:48:02;;;;;;;24.67;14.95;;;;;;;3.79;100.00;67197.47;6066040;23;20015;-86
2022/04/30 03:50:28;;;;;;;20.90;14.85;;;;;;;3.72;100.00;67198.03;6042075;23;20360;-86
2022/04/30 03:52:53;;;;;;;23.80;14.73;;;;;;;3.73;100.00;67195.97;6038633;23;20018;-87
2022/04/30 03:55:18;;;;;;;23.55;15.10;;;;;;;3.70;100.00;67189.94;6037228;23;20094;-86
2022/04/30 03:57:44;;;;;;;25.02;15.57;;;;;;;3.71;100.00;67194.28;6063181;23;20011;-87
2022/04/30 04:00:10;;;;;;;28.65;16.25;;;;;;;3.72;100.00;67195.41;6062723;23;20037;-87
2022/04/30 04:02:39;;;;;;;23.25;14.15;;;;;;;3.75;100.00;67198.22;6038762;23;20010;-87
2022/04/30 04:05:06;;;;;;;27.63;16.88;;;;;;;3.75;100.00;67196.16;6064769;23;20878;-86
2022/04/30 04:07:32;;;;;;;30.08;16.38;;;;;;;3.70;100.00;67187.88;6065380;23;20015;-88
2022/04/30 04:09:58;;;;;;;26.98;16.88;;;;;;;3.74;100.00;67195.03;6041008;23;20030;-87
2022/04/30 04:12:23;;;;;;;24.90;16.63;;;;;;;3.75;100.00;67198.22;6052816;23;20018;-89
2022/04/30 04:17:39;;;;;;;28.30;18.15;;;;;;;3.73;100.00;67191.25;6043363;23;20034;-86
2022/04/30 04:20:07;;;;;;;28.88;18.15;;;;;;;3.77;100.00;67197.84;6034269;23;20015;-87
2022/04/30 04:22:33;;;;;;;33.38;18.67;;;;;;;3.80;100.00;67198.63;6034280;23;20023;-87
2022/04/30 04:27:42;;;;;;;33.88;18.48;;;;;;;3.83;100.00;67207.25;6062085;23;20345;-86
2022/04/30 04:30:08;;;;;;;28.92;19.13;;;;;;;3.80;100.00;67203.88;6035770;23;20015;-87
2022/04/30 04:32:33;;;;;;;29.23;17.48;;;;;;;3.79;100.00;67202.72;6062396;23;20053;-86
2022/04/30 04:34:59;;;;;;;29.15;20.10;;;;;;;3.79;100.00;67202.72;6036501;23;20022;-86
2022/04/30 04:37:24;;;;;;;27.77;17.30;;;;;;;3.83;100.00;67205.19;6035768;23;20015;-86
2022/04/30 04:39:50;;;;;;;27.55;19.33;;;;;;;3.84;100.00;67208.38;6037315;23;20023;-86
2022/04/30 04:42:16;;;;;;;30.20;19.02;;;;;;;3.88;100.00;67209.69;6059910;23;20023;-87
2022/04/30 04:44:41;;;;;;;29.20;18.63;;;;;;;3.84;100.00;67208.38;6037277;23;20011;-86
2022/04/30 04:47:07;;;;;;;27.10;19.42;;;;;;;3.89;100.00;67210.84;6036880;23;20457;-86
2022/04/30 04:49:33;;;;;;;29.25;18.73;;;;;;;3.91;100.00;67216.28;6036309;23;20022;-86
2022/04/30 04:52:01;;;;;;;27.77;19.35;;;;;;;3.87;100.00;67208.56;6058654;23;20023;-86
2022/04/30 04:54:26;;;;;;;28.00;17.73;;;;;;;3.90;100.00;67214.59;6034820;23;20090;-86
2022/04/30 04:56:52;;;;;;;28.35;18.40;;;;;;;3.93;100.00;67215.34;6060729;23;20055;-87
2022/04/30 04:59:17;;;;;;;29.60;19.08;;;;;;;3.95;100.00;67218.16;6059898;23;20019;-86
2022/04/30 05:01:42;;;;;;;29.25;19.55;;;;;;;3.91;100.00;67213.06;6036000;23;20026;-86
2022/04/30 05:04:11;;;;;;;30.10;19.23;;;;;;;3.92;100.00;67217.41;6059878;23;20007;-87
2022/04/30 05:06:36;;;;;;;29.92;19.40;;;;;;;3.97;100.00;67222.47;6060387;23;20041;-86
2022/04/30 05:09:02;;;;;;;31.35;20.33;;;;;;;4.01;100.00;67224.38;6035830;23;20814;-86
2022/04/30 05:11:27;;;;;;;26.75;17.70;;;;;;;4.11;100.00;67233.00;6034618;23;20018;-87
2022/04/30 05:13:53;;;;;;;30.70;19.58;;;;;;;4.01;100.00;67222.28;6036687;23;20033;-85
2022/04/30 05:16:18;;;;;;;30.17;19.05;;;;;;;4.00;100.00;67226.44;6037312;23;20043;-87
2022/04/30 05:18:44;;;;;;;30.35;18.65;;;;;;;4.06;100.00;67230.03;6062095;23;20043;-87
2022/04/30 05:21:09;;;;;;;29.65;19.13;;;;;;;4.10;100.00;67236.59;6033225;23;20700;-86
2022/04/30 05:23:35;;;;;;;34.17;18.77;;;;;;;4.20;100.00;67245.25;6062151;23;20022;-87
2022/04/30 05:26:00;;;;;;;31.27;19.95;;;;;;;4.28;100.00;67254.84;6060613;23;20018;-86
2022/04/30 05:28:25;;;;;;;30.90;18.52;;;;;;;4.37;100.00;67264.44;6061930;23;20015;-87
2022/04/30 05:30:51;;;;;;;29.95;20.20;;;;;;;4.47;100.00;67273.09;6036027;23;20022;-87
2022/04/30 05:33:16;;;;;;;29.40;19.85;;;;;;;4.54;100.00;67280.41;6059036;23;20038;-86
2022/04/30 05:35:42;;;;;;;30.15;19.05;;;;;;;4.59;100.00;67288.16;6061507;23;20599;-87
2022/04/30 05:38:07;;;;;;;28.77;18.50;;;;;;;4.72;100.00;67300.75;6036005;23;20039;-87
2022/04/30 05:40:32;;;;;;;24.77;16.08;;;;;;;4.72;100.00;67300.19;6037882;23;20114;-87
2022/04/30 05:42:58;;;;;;;26.17;17.58;;;;;;;4.80;100.00;67316.56;6062644;23;20026;-86
2022/04/30 05:45:23;;;;;;;26.50;17.15;;;;;;;4.88;100.00;67317.69;6039066;23;20026;-86
2022/04/30 05:47:49;;;;;;;23.85;16.27;;;;;;;5.00;100.00;67333.88;6037210;23;20042;-87
2022/04/30 05:50:14;;;;;;;22.23;15.50;;;;;;;5.09;100.00;67343.47;6037489;23;20025;-85
2022/04/30 05:52:39;;;;;;;22.10;15.70;;;;;;;5.19;100.00;67355.34;6048559;23;20014;-89
2022/04/30 05:55:05;;;;;;;22.52;14.90;;;;;;;5.36;100.00;67376.06;6088255;23;20011;-90
2022/04/30 05:57:32;;;;;;;21.08;14.75;;;;;;;5.41;100.00;67379.06;6067479;23;20007;-89
2022/04/30 05:59:57;;;;;;;23.08;15.27;;;;;;;5.49;100.00;67384.91;6067011;23;20275;-88
2022/04/30 06:02:23;;;;;;;23.55;14.15;;;;;;;5.62;100.00;67405.44;6062677;23;20005;-88
2022/04/30 06:04:49;;;;;;;19.15;13.48;;;;;;;5.76;100.00;67414.84;6043927;23;20532;-87
2022/04/30 06:07:15;;;;;;;22.35;14.23;;;;;;;5.93;100.00;67434.09;6064666;23;20461;-85
2022/04/30 06:09:40;;;;;;;18.85;12.63;;;;;;;6.01;100.00;67445.78;6065988;23;20025;-86
2022/04/30 06:12:06;;;;;;;20.52;13.85;;;;;;;6.14;100.00;67459.91;6038446;23;20785;-87
2022/04/30 06:14:31;;;;;;;20.60;13.88;;;;;;;6.21;100.00;67469.88;6064905;23;20022;-87
2022/04/30 06:16:58;;;;;;;20.15;13.70;;;;;;;6.27;100.00;67471.38;6060990;23;20038;-86
2022/04/30 06:19:23;;;;;;;17.00;12.32;;;;;;;6.42;100.00;67488.34;6065649;23;20106;-86
2022/04/30 06:21:49;;;;;;;15.93;11.93;;;;;;;6.51;100.00;67501.19;6066909;23;20015;-86
2022/04/30 06:24:15;;;;;;;18.83;12.32;;;;;;;6.54;100.00;67501.91;6062643;23;20023;-86
2022/04/30 06:26:40;;;;;;;17.55;11.98;;;;;;;6.57;100.00;67504.19;6037954;23;20030;-86
2022/04/30 06:29:06;;;;;;;18.77;12.48;;;;;;;6.68;100.00;67517.19;6065688;23;20019;-86
2022/04/30 06:31:32;;;;;;;15.10;11.73;;;;;;;6.77;100.00;67526.81;6066482;23;20483;-87
2022/04/30 06:33:58;;;;;;;16.25;11.40;;;;;;;6.74;100.00;67523.97;6043390;23;20027;-87
2022/04/30 06:36:23;;;;;;;17.48;11.50;;;;;;;;;;6064752;23;20698;-86
2022/04/30 06:38:49;;;;;;;17.75;11.55;;;;;;;6.99;100.00;67554.34;6067179;23;20022;-86
2022/04/30 06:41:14;;;;;;;16.42;11.50;;;;;;;;;;6039308;23;20023;-86
2022/04/30 06:43:41;;;;;;;19.45;10.85;;;;;;;;;;6038336;23;20043;-86
2022/04/30 06:46:07;;;;;;;15.68;10.63;;;;;;;7.08;100.00;67560.72;6037490;23;20018;-87
2022/04/30 06:48:33;;;;;;;14.10;11.02;;;;;;;7.29;100.00;67583.94;6063559;23;20448;-86
2022/04/30 06:50:59;;;;;;;16.70;10.90;;;;;;;7.36;99.16;67595.06;6061316;23;20066;-86
2022/04/30 06:58:54;;;;;;;13.98;9.52;;;;;;;7.83;95.56;67643.94;6065986;23;20047;-85
2022/04/30 07:01:42;;;;;;;12.38;8.13;;;;;;;;;;6036422;23;20071;-86
2022/04/30 07:04:10;;;;;;;12.43;9.20;;;;;;;7.99;92.91;67661.47;6046915;23;20058;-86
2022/04/30 07:06:36;;;;;;;12.30;8.23;;;;;;;8.02;92.80;67670.19;6062822;23;20015;-86
2022/04/30 07:09:06;;;;;;;16.60;9.23;;;;;;;8.11;92.91;67675.06;6038597;23;20461;-85
2022/04/30 07:11:31;;;;;;;12.52;8.70;;;;;;;8.23;91.86;67688.09;6039516;23;20093;-86
2022/04/30 07:13:57;;;;;;;12.38;8.07;;;;;;;8.26;90.17;67691.50;6036713;23;20038;-86
2022/04/30 07:16:22;;;;;;;11.60;7.97;;;;;;;8.31;90.48;67697.16;6038411;23;20054;-86
2022/04/30 07:18:48;;;;;;;9.82;7.45;;;;;;;8.42;88.38;67709.06;6038542;23;20019;-86
2022/04/30 07:21:13;;;;;;;12.05;7.90;;;;;;;;;;6036718;23;20018;-86
2022/04/30 07:23:39;;;;;;;11.65;6.75;;;;;;;8.67;87.42;67731.53;6035887;23;20018;-87
2022/04/30 07:26:04;;;;;;;10.60;6.82;;;;;;;8.69;85.42;67739.66;6062946;23;20018;-87
2022/04/30 07:28:33;;;;;;;10.90;6.10;;;;;;;;;;6063510;23;20402;-84
2022/04/30 07:30:58;;;;;;;8.70;6.13;;;;;;;8.98;82.84;67771.97;6063630;23;20018;-88
2022/04/30 07:33:24;;;;;;;9.50;5.47;;;;;;;8.97;81.05;67770.25;6036146;23;20103;-88
2022/04/30 07:35:50;;;;;;;10.38;5.38;;;;;;;;;;6033498;23;20022;-87
2022/04/30 07:38:15;;;;;;;8.77;5.47;;;;;;;9.12;80.30;67789.94;6034181;23;20441;-87
2022/04/30 07:40:40;;;;;;;9.57;6.00;;;;;;;9.32;80.68;67808.78;6061949;23;20019;-86
2022/04/30 07:43:06;;;;;;;9.68;4.75;;;;;;;9.27;78.77;67804.25;6066907;23;20030;-87
2022/04/30 07:45:31;;;;;;;10.32;5.68;;;;;;;9.39;77.76;67816.75;6087684;23;20034;-85
2022/04/30 07:47:57;;;;;;;7.50;4.40;;;;;;;9.46;74.28;67824.66;6063540;23;20015;-89
2022/04/30 07:50:25;;;;;;;8.30;4.63;;;;;;;9.54;74.26;67833.75;6062952;23;20043;-90
2022/04/30 07:52:50;;;;;;;7.85;3.47;;;;;;;9.51;71.53;67832.44;6035213;23;20026;-86
2022/04/30 07:55:16;;;;;;;6.90;4.55;;;;;;;9.46;72.66;67819.34;6062896;23;20097;-87
2022/04/30 07:57:41;;;;;;;7.53;3.40;;;;;;;;;;6060614;23;20026;-86
2022/04/30 08:00:07;;;;;;;30.23;17.23;;;;;;;9.46;72.60;67824.66;6036629;23;20086;-86
2022/04/30 08:02:33;;;;;;;8.07;4.40;;;;;;;;;;6068570;23;20086;-86
2022/04/30 08:04:59;;;;;;;5.70;4.35;;;;;;;9.56;71.75;67836.00;6042741;23;20019;-85
2022/04/30 08:07:24;;;;;;;6.45;4.28;;;;;;;9.62;71.92;67842.25;6068519;23;20118;-87
2022/04/30 08:09:49;;;;;;;4.50;2.95;;;;;;;9.84;70.38;67867.19;6071624;23;20022;-86
2022/04/30 08:12:18;;;;;;;9.00;3.88;;;;;;;9.83;70.26;67866.06;6041693;23;20022;-86
2022/04/30 08:14:44;;;;;;;7.37;3.67;;;;;;;;;;6068129;23;20027;-86
2022/04/30 08:17:09;;;;;;;5.60;3.25;;;;;;;9.97;70.23;67881.38;6040364;23;20053;-85
2022/04/30 08:19:35;;;;;;;7.70;4.65;;;;;;;9.95;70.23;67881.75;6069094;23;20018;-86
2022/04/30 08:22:00;;;;;;;5.65;3.63;;;;;;;9.85;70.61;67867.75;6041218;23;20098;-87
2022/04/30 08:24:25;;;;;;;6.32;3.67;;;;;;;;;;6069208;23;20015;-85
2022/04/30 08:26:51;;;;;;;6.37;3.50;;;;;;;10.00;67.52;67884.22;6069392;23;20025;-85
2022/04/30 08:29:16;;;;;;;5.35;3.63;;;;;;;10.07;67.47;67887.41;6067533;23;20258;-86
2022/04/30 08:31:41;;;;;;;6.40;3.80;;;;;;;10.06;66.65;67896.31;6042578;23;20023;-85
2022/04/30 08:34:07;;;;;;;6.43;3.70;;;;;;;10.13;66.05;67894.22;6040305;23;20055;-85
2022/04/30 08:36:32;;;;;;;7.75;3.90;;;;;;;10.16;68.55;67905.59;6068309;23;20023;-87
2022/04/30 08:38:57;;;;;;;7.07;3.95;;;;;;;10.31;66.53;67918.84;6068505;23;20015;-85
2022/04/30 08:41:23;;;;;;;5.15;3.00;;;;;;;10.31;65.44;67921.50;6068307;23;20631;-89
2022/04/30 08:43:49;;;;;;;4.07;2.90;;;;;;;10.32;64.26;67922.63;6068793;23;20015;-86
2022/04/30 08:46:18;;;;;;;4.78;3.15;;;;;;;10.48;63.59;67938.13;6067843;23;20062;-87
2022/04/30 08:48:45;;;;;;;4.28;2.25;;;;;;;10.46;61.23;67935.28;6043080;23;20051;-87
2022/04/30 08:51:12;;;;;;;3.73;2.63;;;;;;;10.63;61.62;67954.00;6043357;23;20484;-86
2022/04/30 08:53:38;;;;;;;3.65;2.20;;;;;;;10.69;59.93;67960.81;6066478;23;20011;-87
2022/04/30 08:56:10;;;;;;;5.28;2.67;;;;;;;;;;6069432;23;20650;-90
2022/04/30 08:58:36;;;;;;;3.47;2.35;;;;;;;10.67;59.79;67959.09;6043695;23;20022;-88
2022/04/30 09:01:03;;;;;;;5.68;2.63;;;;;;;10.61;59.95;67952.28;6067897;23;20019;-85
2022/04/30 09:03:33;;;;;;;4.45;2.40;;;;;;;10.65;59.92;67948.31;6041115;23;20019;-85
2022/04/30 09:06:00;;;;;;;5.68;2.65;;;;;;;;;;6066728;23;20458;-85
2022/04/30 09:08:25;;;;;;;3.60;2.10;;;;;;;10.56;59.88;67947.19;6039711;23;20041;-88
2022/04/30 09:10:50;;;;;;;3.55;2.50;;;;;;;10.57;60.55;67942.44;6066888;23;20034;-85
2022/04/30 09:13:17;;;;;;;5.35;2.63;;;;;;;10.64;60.38;67950.38;6038568;23;20026;-88
2022/04/30 09:15:44;;;;;;;5.43;2.17;;;;;;;10.70;59.73;67962.50;6066081;23;20102;-86
2022/04/30 09:18:10;;;;;;;3.28;2.03;;;;;;;10.76;58.49;67963.44;6066753;23;20089;-85
2022/04/30 09:20:49;;;;;;;4.68;2.08;;;;;;;10.72;58.44;67958.91;6041415;23;20026;-85
2022/04/30 09:23:24;;;;;;;4.43;2.00;;;;;;;;;;6064977;23;20047;-85
2022/04/30 09:25:55;;;;;;;6.22;3.78;;;;;;;10.81;56.60;67974.44;6066703;23;20031;-85
2022/04/30 09:28:30;;;;;;;6.18;2.38;;;;;;;;;;6067016;23;20057;-87
2022/04/30 09:31:13;;;;;;;3.95;2.70;;;;;;;10.99;55.34;67989.56;6043498;23;20015;-85
2022/04/30 09:37:41;;;;;;;4.25;2.13;;;;;;;11.22;52.02;68020.41;6020178;23;20405;-86
2022/04/30 09:39:32;;;;;;;3.20;1.52;;;;;;;11.49;51.00;68049.94;6041688;23;20033;-87
2022/04/30 09:42:01;;;;;;;4.20;1.60;;;;;;;;;;6065335;23;20090;-89
2022/04/30 09:44:26;;;;;;;3.30;1.40;;;;;;;;;;6066336;23;20379;-88
2022/04/30 09:46:52;;;;;;;3.45;1.60;;;;;;;;;;6064713;23;20019;-85
2022/04/30 09:54:46;;;;;;;3.40;1.40;;;;;;;;;;6063043;23;20030;-86
2022/04/30 09:57:14;;;;;;;2.58;1.52;;;;;;;12.08;50.37;68109.94;6039424;23;20019;-89
2022/04/30 09:59:40;;;;;;;2.90;1.60;;;;;;;;;;6038035;23;20594;-88
2022/04/30 10:02:09;;;;;;;2.70;1.80;;;;;;;12.07;49.47;68114.13;6062986;23;20015;-84
2022/04/30 10:04:37;;;;;;;3.65;1.90;;;;;;;;;;6067385;23;20026;-83
2022/04/30 10:07:03;;;;;;;3.90;1.55;;;;;;;;;;6040123;23;20147;-84
2022/04/30 10:09:34;;;;;;;3.78;1.67;;;;;;;13.12;49.06;68225.88;6066509;23;20066;-83
2022/04/30 10:12:09;;;;;;;3.78;1.90;;;;;;;;;;6067000;23;20089;-84
2022/04/30 10:14:50;;;;;;;3.80;2.00;;;;;;;12.72;51.51;68186.31;6022414;23;20025;-84
2022/04/30 10:19:41;;;;;;;4.22;2.20;;;;;;;12.46;49.94;68157.31;6071971;23;20067;-85
2022/04/30 10:22:13;;;;;;;3.47;1.75;;;;;;;12.20;49.02;68128.91;6073926;23;20461;-85
2022/04/30 10:24:46;;;;;;;7.00;2.13;;;;;;;;;;6069663;23;20026;-86
2022/04/30 10:27:13;;;;;;;4.68;1.67;;;;;;;11.92;50.41;68097.66;6069106;23;20023;-86
2022/04/30 10:29:49;;;;;;;2.83;1.45;;;;;;;;;;6066182;23;20019;-86
2022/04/30 10:32:23;;;;;;;3.72;1.50;;;;;;;;;;6037613;23;20097;-86
2022/04/30 10:34:50;;;;;;;2.45;1.27;;;;;;;;;;6064489;23;20027;-87
2022/04/30 10:37:29;;;;;;;3.38;1.40;;;;;;;13.06;48.32;68224.38;6062963;23;20034;-85
2022/04/30 10:39:56;;;;;;;2.80;1.42;;;;;;;12.88;46.81;68199.72;6064058;23;20019;-85
2022/04/30 10:42:41;;;;;;;2.28;1.20;;;;;;;12.98;44.86;68209.97;6037099;23;20074;-86
2022/04/30 10:45:12;;;;;;;1.77;1.17;;;;;;;;;;6062819;23;20026;-86
2022/04/30 10:47:55;;;;;;;4.75;2.00;;;;;;;12.95;46.20;68214.56;6062674;23;20075;-86
2022/04/30 10:50:21;;;;;;;3.10;1.50;;;;;;;;;;6066550;23;20053;-85
2022/04/30 10:52:51;;;;;;;4.40;2.10;;;;;;;12.93;46.75;68204.84;6041030;23;20686;-85
2022/04/30 10:55:17;;;;;;;2.97;1.80;;;;;;;;;;6039265;23;20488;-85
2022/04/30 10:57:44;;;;;;;3.42;2.50;;;;;;;13.15;46.89;68234.63;6039558;23;20031;-85
2022/04/30 11:00:09;;;;;;;2.92;1.90;;;;;;;;;;6039282;23;20489;-85
2022/04/30 11:02:35;;;;;;;3.75;1.88;;;;;;;13.20;47.09;68240.31;6038683;23;20025;-85
2022/04/30 11:05:01;;;;;;;3.70;2.20;;;;;;;;;;6066502;23;20014;-85
2022/04/30 11:07:28;;;;;;;2.70;1.80;;;;;;;13.49;46.68;68266.81;6064250;23;20026;-85
2022/04/30 11:09:54;;;;;;;5.97;2.13;;;;;;;13.24;49.18;68244.88;6065696;23;20053;-86
2022/04/30 11:12:20;;;;;;;4.55;1.92;;;;;;;13.41;48.71;68257.75;6039341;23;20361;-85
2022/04/30 11:14:45;;;;;;;3.47;1.77;;;;;;;13.48;45.66;68271.03;6064961;23;20090;-85
2022/04/30 11:17:11;;;;;;;5.53;2.22;;;;;;;13.67;46.60;68286.75;6038717;23;20019;-86
2022/04/30 11:19:41;;;;;;;5.03;1.50;;;;;;;13.82;44.38;68309.16;6072826;23;20014;-86
2022/04/30 11:22:09;;;;;;;2.67;1.48;;;;;;;13.96;46.42;68319.16;6056158;23;20030;-85
2022/04/30 11:24:34;;;;;;;3.45;2.00;;;;;;;;;;6080011;23;20019;-85
2022/04/30 11:27:05;;;;;;;3.30;2.10;;;;;;;14.13;44.75;68337.94;6064766;23;20034;-86
2022/04/30 11:29:51;;;;;;;5.18;2.17;;;;;;;14.12;43.72;68342.16;6041260;23;20109;-85
2022/04/30 11:32:21;;;;;;;3.97;2.38;;;;;;;14.03;46.45;68324.44;6037743;23;20023;-85
2022/04/30 11:34:47;;;;;;;5.47;3.35;;;;;;;14.00;52.22;68323.72;6039830;23;20027;-85
2022/04/30 11:37:12;;;;;;;7.88;3.55;;;;;;;;;;6065833;23;20019;-86
2022/04/30 11:39:38;;;;;;;5.13;3.20;;;;;;;13.63;51.88;68282.75;6037474;23;20101;-86
2022/04/30 11:42:03;;;;;;;8.02;3.35;;;;;;;13.45;52.56;68267.63;6063808;23;20330;-84
2022/04/30 11:44:28;;;;;;;6.20;3.53;;;;;;;;;;6065556;23;20070;-84
2022/04/30 11:46:54;;;;;;;6.20;4.60;;;;;;;;;;6066763;23;20023;-84
2022/04/30 11:49:24;;;;;;;5.82;3.80;;;;;;;13.37;54.39;68253.19;6068516;23;20533;-84
2022/04/30 11:51:51;;;;;;;5.35;3.78;;;;;;;;;;6068860;23;20019;-84
2022/04/30 11:54:22;;;;;;;6.47;4.07;;;;;;;13.25;54.83;68240.09;6067543;23;20023;-84
2022/04/30 11:56:47;;;;;;;5.93;3.78;;;;;;;13.16;53.66;68230.41;6043216;23;20026;-84
2022/04/30 11:59:13;;;;;;;4.45;3.20;;;;;;;;;;6066560;23;20027;-84
2022/04/30 12:01:39;;;;;;;4.68;3.53;;;;;;;13.16;53.31;68235.75;6064615;23;20025;-84
2022/04/30 12:04:09;;;;;;;22.80;6.57;;;;;;;13.16;55.58;68229.84;6064109;23;20066;-84
2022/04/30 12:06:38;;;;;;;7.90;4.53;;;;;;;13.13;53.84;68232.34;6065352;23;20078;-84
2022/04/30 12:09:17;;;;;;;11.90;6.47;;;;;;;13.21;54.26;68236.13;6067340;23;20050;-84
2022/04/30 12:11:43;;;;;;;11.77;4.03;;;;;;;13.32;52.84;68248.66;6021161;23;20026;-84
2022/04/30 12:14:10;;;;;;;7.13;4.13;;;;;;;13.18;53.43;68237.47;6065100;23;20402;-83
2022/04/30 12:16:40;;;;;;;8.68;4.35;;;;;;;13.06;53.74;68227.66;6065611;23;20021;-84
2022/04/30 12:24:57;;;;;;;57.03;8.52;;;;;;;13.05;58.03;68218.47;6044618;23;20478;-84
2022/04/30 12:27:23;;;;;;;10.45;5.55;;;;;;;;;;6066209;23;20023;-84
2022/04/30 12:29:59;;;;;;;10.13;5.38;;;;;;;12.70;61.91;68184.03;6041160;23;20470;-84
2022/04/30 12:32:25;;;;;;;9.15;5.95;;;;;;;12.79;63.31;68194.25;6037042;23;20487;-85